createdAt,value
2022-12-31T00:00:37.141Z,262.90
2022-12-31T00:01:37.060Z,258.90
2022-12-31T00:02:37.206Z,263.40
2022-12-31T00:03:37.137Z,269.80
2022-12-31T00:04:37.028Z,265.80
2022-12-31T00:05:37.017Z,256.30
2022-12-31T00:06:37.015Z,260.80
2022-12-31T00:08:07.923Z,261.00
2022-12-31T00:09:08.923Z,266.60
2022-12-31T00:10:08.884Z,272.30
2022-12-31T00:11:08.870Z,269.00
2022-12-31T00:12:08.879Z,272.10
2022-12-31T00:13:08.869Z,270.10
2022-12-31T00:14:08.872Z,263.80
2022-12-31T00:15:08.840Z,256.20
2022-12-31T00:16:12.261Z,260.60
2022-12-31T00:17:08.833Z,266.50
2022-12-31T00:18:08.798Z,259.40
2022-12-31T00:19:08.833Z,258.10
2022-12-31T00:20:08.774Z,255.20
2022-12-31T00:21:08.772Z,257.90
2022-12-31T00:22:08.789Z,259.50
2022-12-31T00:23:08.747Z,267.10
2022-12-31T00:24:08.767Z,269.90
2022-12-31T00:25:08.729Z,267.10
2022-12-31T00:26:08.726Z,277.20
2022-12-31T00:27:08.712Z,272.00
2022-12-31T00:28:08.690Z,270.30
2022-12-31T00:29:08.704Z,273.70
2022-12-31T00:30:08.668Z,275.90
2022-12-31T00:31:08.740Z,262.30
2022-12-31T00:32:08.656Z,269.80
2022-12-31T00:33:08.657Z,271.70
2022-12-31T00:34:08.685Z,273.20
2022-12-31T00:35:08.623Z,279.60
2022-12-31T00:36:08.614Z,267.20
2022-12-31T00:37:08.603Z,270.40
2022-12-31T00:38:08.593Z,266.20
2022-12-31T00:39:08.629Z,268.70
2022-12-31T00:40:08.615Z,266.30
2022-12-31T00:41:08.563Z,264.60
2022-12-31T00:42:08.544Z,259.30
2022-12-31T00:43:08.539Z,273.70
2022-12-31T00:44:08.551Z,275.00
2022-12-31T00:45:08.529Z,274.80
2022-12-31T00:46:08.577Z,261.90
2022-12-31T00:47:08.497Z,266.50
2022-12-31T00:48:08.477Z,277.00
2022-12-31T00:49:08.565Z,269.70
2022-12-31T00:50:08.467Z,268.50
2022-12-31T00:51:08.470Z,265.70
2022-12-31T00:52:08.474Z,266.90
2022-12-31T00:53:08.478Z,272.40
2022-12-31T00:54:08.429Z,265.30
2022-12-31T00:55:08.434Z,266.70
2022-12-31T00:56:08.396Z,271.20
2022-12-31T00:57:08.429Z,269.20
2022-12-31T00:58:08.373Z,271.00
2022-12-31T00:59:08.381Z,271.70
2022-12-31T01:00:08.388Z,273.80
2022-12-31T01:01:08.460Z,266.40
2022-12-31T01:02:08.523Z,270.10
2022-12-31T01:03:08.405Z,269.50
2022-12-31T01:04:08.333Z,278.70
2022-12-31T01:05:08.456Z,278.70
2022-12-31T01:06:08.296Z,271.40
2022-12-31T01:07:08.297Z,268.60
2022-12-31T01:08:08.275Z,267.40
2022-12-31T01:09:08.274Z,269.70
2022-12-31T01:10:08.311Z,270.60
2022-12-31T01:11:08.249Z,270.80
2022-12-31T01:12:08.226Z,272.30
2022-12-31T01:13:08.232Z,272.30
2022-12-31T01:14:08.227Z,272.20
2022-12-31T01:15:08.239Z,267.00
2022-12-31T01:16:08.251Z,266.30
2022-12-31T01:17:08.197Z,275.70
2022-12-31T01:18:08.162Z,275.90
2022-12-31T01:19:08.165Z,274.00
2022-12-31T01:20:08.197Z,282.10
2022-12-31T01:21:08.141Z,283.70
2022-12-31T01:22:08.120Z,282.40
2022-12-31T01:23:08.155Z,282.70
2022-12-31T01:24:08.107Z,281.00
2022-12-31T01:25:08.112Z,273.20
2022-12-31T01:26:08.085Z,265.70
2022-12-31T01:27:08.069Z,274.50
2022-12-31T01:28:08.076Z,273.30
2022-12-31T01:29:08.061Z,277.60
2022-12-31T01:30:08.074Z,280.00
2022-12-31T01:31:08.074Z,282.60
2022-12-31T01:32:08.070Z,279.10
2022-12-31T01:33:08.012Z,276.60
2022-12-31T01:34:08.020Z,270.70
2022-12-31T01:35:08.028Z,263.70
2022-12-31T01:36:07.991Z,272.30
2022-12-31T01:37:07.974Z,277.00
2022-12-31T01:38:07.971Z,277.00
2022-12-31T01:39:08.027Z,277.40
2022-12-31T01:40:07.961Z,275.50
2022-12-31T01:41:07.948Z,274.70
2022-12-31T01:42:07.925Z,274.80
2022-12-31T01:43:07.907Z,275.50
2022-12-31T01:44:07.964Z,280.70
2022-12-31T01:45:07.914Z,278.60
2022-12-31T01:46:07.872Z,282.00
2022-12-31T01:47:07.920Z,284.50
2022-12-31T01:48:07.864Z,285.40
2022-12-31T01:49:07.841Z,293.50
2022-12-31T01:50:07.853Z,288.50
2022-12-31T01:51:07.845Z,285.60
2022-12-31T01:52:07.833Z,285.60
2022-12-31T01:53:07.847Z,288.10
2022-12-31T01:54:07.795Z,287.00
2022-12-31T01:55:07.806Z,285.60
2022-12-31T01:56:07.766Z,284.20
2022-12-31T01:57:07.762Z,284.20
2022-12-31T01:58:07.746Z,294.40
2022-12-31T01:59:07.740Z,292.90
2022-12-31T02:00:07.765Z,292.80
2022-12-31T02:01:07.763Z,292.00
2022-12-31T02:02:07.865Z,289.40
2022-12-31T02:03:07.778Z,286.80
2022-12-31T02:04:07.680Z,285.90
2022-12-31T02:05:07.709Z,285.90
2022-12-31T02:06:07.684Z,275.10
2022-12-31T02:07:07.661Z,290.00
2022-12-31T02:08:07.645Z,287.50
2022-12-31T02:09:07.636Z,287.60
2022-12-31T02:10:07.644Z,287.60
2022-12-31T02:11:07.615Z,280.80
2022-12-31T02:12:07.595Z,282.90
2022-12-31T02:13:07.590Z,285.40
2022-12-31T02:14:07.605Z,291.60
2022-12-31T02:15:07.559Z,290.70
2022-12-31T02:16:07.593Z,287.10
2022-12-31T02:17:07.556Z,287.00
2022-12-31T02:18:07.536Z,288.20
2022-12-31T02:19:07.531Z,284.80
2022-12-31T02:20:07.553Z,288.00
2022-12-31T02:21:07.537Z,298.60
2022-12-31T02:22:07.514Z,291.10
2022-12-31T02:23:07.499Z,286.40
2022-12-31T02:24:07.535Z,288.80
2022-12-31T02:25:07.488Z,288.20
2022-12-31T02:26:07.553Z,286.60
2022-12-31T02:27:07.472Z,281.60
2022-12-31T02:28:07.452Z,284.20
2022-12-31T02:29:07.447Z,284.60
2022-12-31T02:30:07.430Z,290.00
2022-12-31T02:31:07.475Z,288.70
2022-12-31T02:32:07.417Z,283.90
2022-12-31T02:33:07.397Z,280.20
2022-12-31T02:34:07.393Z,278.90
2022-12-31T02:35:07.370Z,282.80
2022-12-31T02:36:07.388Z,282.90
2022-12-31T02:37:07.339Z,271.80
2022-12-31T02:38:07.321Z,276.10
2022-12-31T02:39:07.338Z,277.30
2022-12-31T02:40:07.293Z,270.00
2022-12-31T02:41:07.326Z,274.70
2022-12-31T02:42:07.280Z,277.70
2022-12-31T02:43:07.289Z,271.00
2022-12-31T02:44:07.258Z,271.60
2022-12-31T02:45:07.247Z,271.90
2022-12-31T02:46:07.306Z,266.00
2022-12-31T02:47:07.232Z,265.00
2022-12-31T02:48:07.233Z,267.90
2022-12-31T02:49:07.210Z,269.60
2022-12-31T02:50:07.198Z,273.30
2022-12-31T02:51:07.206Z,278.70
2022-12-31T02:52:07.188Z,276.20
2022-12-31T02:53:07.179Z,279.40
2022-12-31T02:54:07.162Z,279.30
2022-12-31T02:55:07.157Z,277.80
2022-12-31T02:56:14.735Z,282.50
2022-12-31T02:57:13.615Z,286.40
2022-12-31T02:58:07.114Z,284.00
2022-12-31T02:59:07.100Z,282.80
2022-12-31T03:00:07.094Z,283.30
2022-12-31T03:01:07.243Z,281.60
2022-12-31T03:02:07.350Z,280.50
2022-12-31T03:03:07.069Z,284.00
2022-12-31T03:04:07.052Z,286.70
2022-12-31T03:05:07.045Z,287.40
2022-12-31T03:06:07.056Z,290.50
2022-12-31T03:07:07.019Z,290.10
2022-12-31T03:08:07.012Z,284.80
2022-12-31T03:09:07.009Z,286.80
2022-12-31T03:10:07.025Z,288.80
2022-12-31T03:11:07.000Z,297.00
2022-12-31T03:12:06.968Z,293.00
2022-12-31T03:13:06.960Z,280.60
2022-12-31T03:14:06.952Z,274.70
2022-12-31T03:15:06.939Z,271.70
2022-12-31T03:16:06.981Z,274.20
2022-12-31T03:17:06.928Z,275.30
2022-12-31T03:18:06.905Z,277.10
2022-12-31T03:19:06.918Z,276.30
2022-12-31T03:20:06.883Z,271.70
2022-12-31T03:21:06.910Z,272.90
2022-12-31T03:22:06.889Z,276.10
2022-12-31T03:23:06.869Z,272.10
2022-12-31T03:24:06.845Z,276.20
2022-12-31T03:25:06.843Z,267.80
2022-12-31T03:26:06.846Z,268.10
2022-12-31T03:27:06.809Z,266.20
2022-12-31T03:28:06.809Z,270.50
2022-12-31T03:29:06.829Z,267.00
2022-12-31T03:30:06.772Z,267.20
2022-12-31T03:31:06.864Z,271.10
2022-12-31T03:32:06.761Z,269.20
2022-12-31T03:33:06.756Z,265.10
2022-12-31T03:34:06.730Z,260.20
2022-12-31T03:35:06.755Z,254.10
2022-12-31T03:36:06.742Z,256.10
2022-12-31T03:37:06.706Z,253.10
2022-12-31T03:38:06.714Z,251.00
2022-12-31T03:39:06.708Z,252.90
2022-12-31T03:40:06.685Z,249.10
2022-12-31T03:41:06.727Z,250.60
2022-12-31T03:42:06.661Z,250.00
2022-12-31T03:43:06.641Z,248.60
2022-12-31T03:44:06.639Z,245.90
2022-12-31T03:45:06.628Z,244.40
2022-12-31T03:46:06.743Z,245.30
2022-12-31T03:47:06.605Z,239.70
2022-12-31T03:48:06.589Z,240.40
2022-12-31T03:49:06.614Z,242.30
2022-12-31T03:50:06.588Z,229.40
2022-12-31T03:51:06.608Z,223.50
2022-12-31T03:52:06.552Z,226.00
2022-12-31T03:53:06.576Z,215.80
2022-12-31T03:54:06.595Z,216.00
2022-12-31T03:55:06.539Z,219.50
2022-12-31T03:56:06.533Z,217.20
2022-12-31T03:57:06.523Z,214.10
2022-12-31T03:58:06.503Z,217.10
2022-12-31T03:59:06.474Z,212.90
2022-12-31T04:00:06.512Z,215.20
2022-12-31T04:01:06.604Z,219.20
2022-12-31T04:02:06.541Z,215.90
2022-12-31T04:03:06.514Z,210.80
2022-12-31T04:04:06.441Z,209.30
2022-12-31T04:05:06.402Z,210.70
2022-12-31T04:06:06.424Z,204.20
2022-12-31T04:07:06.417Z,209.10
2022-12-31T04:08:06.377Z,212.20
2022-12-31T04:09:06.369Z,212.40
2022-12-31T04:10:06.361Z,207.90
2022-12-31T04:11:06.370Z,212.00
2022-12-31T04:12:06.442Z,216.80
2022-12-31T04:13:06.331Z,209.80
2022-12-31T04:14:06.326Z,210.50
2022-12-31T04:15:06.303Z,216.50
2022-12-31T04:16:06.332Z,212.90
2022-12-31T04:17:06.328Z,208.50
2022-12-31T04:18:06.410Z,210.80
2022-12-31T04:19:06.259Z,205.30
2022-12-31T04:20:06.258Z,206.70
2022-12-31T04:21:06.244Z,209.80
2022-12-31T04:22:06.253Z,206.50
2022-12-31T04:23:06.228Z,211.80
2022-12-31T04:24:06.204Z,213.30
2022-12-31T04:25:06.232Z,208.00
2022-12-31T04:26:06.182Z,209.20
2022-12-31T04:27:08.077Z,217.90
2022-12-31T04:28:06.172Z,211.80
2022-12-31T04:29:06.187Z,212.60
2022-12-31T04:30:06.145Z,213.50
2022-12-31T04:31:06.149Z,210.80
2022-12-31T04:32:06.177Z,211.30
2022-12-31T04:33:06.127Z,212.00
2022-12-31T04:34:06.117Z,216.90
2022-12-31T04:35:06.131Z,216.10
2022-12-31T04:36:06.145Z,214.40
2022-12-31T04:37:06.139Z,211.10
2022-12-31T04:38:06.066Z,213.60
2022-12-31T04:39:06.090Z,215.70
2022-12-31T04:40:07.006Z,215.30
2022-12-31T04:41:06.068Z,212.90
2022-12-31T04:42:06.043Z,219.50
2022-12-31T04:43:06.080Z,217.30
2022-12-31T04:44:06.013Z,216.00
2022-12-31T04:45:06.004Z,221.50
2022-12-31T04:46:06.015Z,213.40
2022-12-31T04:47:06.024Z,223.60
2022-12-31T04:48:05.966Z,221.00
2022-12-31T04:49:06.012Z,219.40
2022-12-31T04:50:12.423Z,227.90
2022-12-31T04:51:05.923Z,233.00
2022-12-31T04:52:05.937Z,225.50
2022-12-31T04:53:05.908Z,232.10
2022-12-31T04:54:05.949Z,234.50
2022-12-31T04:55:05.881Z,229.60
2022-12-31T04:56:05.895Z,232.00
2022-12-31T04:57:05.877Z,237.10
2022-12-31T04:58:05.878Z,237.60
2022-12-31T04:59:05.883Z,234.90
2022-12-31T05:00:05.829Z,235.50
2022-12-31T05:01:06.004Z,234.90
2022-12-31T05:02:06.018Z,238.80
2022-12-31T05:03:05.883Z,241.70
2022-12-31T05:04:05.869Z,243.30
2022-12-31T05:05:05.827Z,243.90
2022-12-31T05:06:05.760Z,247.40
2022-12-31T05:07:05.770Z,251.10
2022-12-31T05:08:05.763Z,244.00
2022-12-31T05:09:05.744Z,246.50
2022-12-31T05:10:05.728Z,245.80
2022-12-31T05:11:05.732Z,244.40
2022-12-31T05:12:05.729Z,248.50
2022-12-31T05:13:05.729Z,253.10
2022-12-31T05:14:05.705Z,254.80
2022-12-31T05:15:05.685Z,257.60
2022-12-31T05:16:05.677Z,253.60
2022-12-31T05:17:05.697Z,252.70
2022-12-31T05:18:05.693Z,252.80
2022-12-31T05:19:05.640Z,254.30
2022-12-31T05:20:12.096Z,255.20
2022-12-31T05:21:05.614Z,254.00
2022-12-31T05:22:05.600Z,263.10
2022-12-31T05:23:05.616Z,266.10
2022-12-31T05:24:05.584Z,265.60
2022-12-31T05:25:05.581Z,263.50
2022-12-31T05:26:05.552Z,265.00
2022-12-31T05:27:05.556Z,256.10
2022-12-31T05:28:05.602Z,265.40
2022-12-31T05:29:05.519Z,269.00
2022-12-31T05:30:05.524Z,266.90
2022-12-31T05:31:05.532Z,273.70
2022-12-31T05:32:05.591Z,275.20
2022-12-31T05:33:05.543Z,280.50
2022-12-31T05:34:05.510Z,275.30
2022-12-31T05:35:05.467Z,275.80
2022-12-31T05:36:05.438Z,274.90
2022-12-31T05:37:05.418Z,270.20
2022-12-31T05:38:05.423Z,268.80
2022-12-31T05:39:05.436Z,265.70
2022-12-31T05:40:05.387Z,267.40
2022-12-31T05:41:05.367Z,263.90
2022-12-31T05:42:05.359Z,258.80
2022-12-31T05:43:05.354Z,245.70
2022-12-31T05:44:05.308Z,237.10
2022-12-31T05:45:05.331Z,237.40
2022-12-31T05:46:05.411Z,238.50
2022-12-31T05:47:05.280Z,232.50
2022-12-31T05:48:05.295Z,222.20
2022-12-31T05:49:05.263Z,218.40
2022-12-31T05:50:05.265Z,214.70
2022-12-31T05:51:05.233Z,219.60
2022-12-31T05:52:05.223Z,219.00
2022-12-31T05:53:05.243Z,216.80
2022-12-31T05:54:05.198Z,222.40
2022-12-31T05:55:05.216Z,222.70
2022-12-31T05:56:05.187Z,221.80
2022-12-31T05:57:05.191Z,223.40
2022-12-31T05:58:05.186Z,220.10
2022-12-31T05:59:05.161Z,220.80
2022-12-31T06:00:05.164Z,222.90
2022-12-31T06:01:05.148Z,216.90
2022-12-31T06:02:05.145Z,218.30
2022-12-31T06:03:05.265Z,216.10
2022-12-31T06:04:05.165Z,215.90
2022-12-31T06:05:05.204Z,219.50
2022-12-31T06:06:05.075Z,219.50
2022-12-31T06:07:05.192Z,216.60
2022-12-31T06:08:05.061Z,218.20
2022-12-31T06:09:05.079Z,222.80
2022-12-31T06:10:05.075Z,223.10
2022-12-31T06:11:05.037Z,219.10
2022-12-31T06:12:05.058Z,224.30
2022-12-31T06:13:05.032Z,224.90
2022-12-31T06:14:05.052Z,226.50
2022-12-31T06:15:04.992Z,232.00
2022-12-31T06:16:05.029Z,231.30
2022-12-31T06:17:06.389Z,227.70
2022-12-31T06:18:04.957Z,224.60
2022-12-31T06:19:05.011Z,229.20
2022-12-31T06:20:10.507Z,223.60
2022-12-31T06:21:04.930Z,219.70
2022-12-31T06:22:04.928Z,216.50
2022-12-31T06:23:04.939Z,211.40
2022-12-31T06:24:04.926Z,210.40
2022-12-31T06:25:04.881Z,220.90
2022-12-31T06:26:04.862Z,219.90
2022-12-31T06:27:04.885Z,217.60
2022-12-31T06:28:04.867Z,219.30
2022-12-31T06:29:05.013Z,220.00
2022-12-31T06:30:04.826Z,218.40
2022-12-31T06:31:04.884Z,214.90
2022-12-31T06:32:04.810Z,214.00
2022-12-31T06:33:04.795Z,212.50
2022-12-31T06:34:04.804Z,212.80
2022-12-31T06:35:04.812Z,211.40
2022-12-31T06:36:04.758Z,212.00
2022-12-31T06:37:04.754Z,218.50
2022-12-31T06:38:04.748Z,220.40
2022-12-31T06:39:04.758Z,214.30
2022-12-31T06:40:04.780Z,216.30
2022-12-31T06:41:04.705Z,224.50
2022-12-31T06:42:04.749Z,218.10
2022-12-31T06:43:04.700Z,216.90
2022-12-31T06:44:04.705Z,219.80
2022-12-31T06:45:04.709Z,212.20
2022-12-31T06:46:04.715Z,218.20
2022-12-31T06:47:04.643Z,213.20
2022-12-31T06:48:04.635Z,216.20
2022-12-31T06:49:04.649Z,221.90
2022-12-31T06:50:04.625Z,225.40
2022-12-31T06:51:04.637Z,232.50
2022-12-31T06:52:04.609Z,234.60
2022-12-31T06:53:04.592Z,235.50
2022-12-31T06:54:04.598Z,231.50
2022-12-31T06:55:04.559Z,230.10
2022-12-31T06:56:04.561Z,222.40
2022-12-31T06:57:04.545Z,220.60
2022-12-31T06:58:04.544Z,222.90
2022-12-31T06:59:04.568Z,216.80
2022-12-31T07:00:04.521Z,219.20
2022-12-31T07:01:04.518Z,217.70
2022-12-31T07:02:04.655Z,220.40
2022-12-31T07:03:04.558Z,225.40
2022-12-31T07:04:04.502Z,224.70
2022-12-31T07:05:04.509Z,230.50
2022-12-31T07:06:04.462Z,236.30
2022-12-31T07:07:04.448Z,225.10
2022-12-31T07:08:04.435Z,224.80
2022-12-31T07:09:04.448Z,233.30
2022-12-31T07:10:04.417Z,230.10
2022-12-31T07:11:04.387Z,239.80
2022-12-31T07:12:04.373Z,240.40
2022-12-31T07:13:04.391Z,243.80
2022-12-31T07:14:04.356Z,252.20
2022-12-31T07:15:04.398Z,259.90
2022-12-31T07:16:04.400Z,258.70
2022-12-31T07:17:04.342Z,264.80
2022-12-31T07:18:04.323Z,264.30
2022-12-31T07:19:04.320Z,264.80
2022-12-31T07:20:04.329Z,265.20
2022-12-31T07:21:04.315Z,263.70
2022-12-31T07:22:04.284Z,263.10
2022-12-31T07:23:04.312Z,271.30
2022-12-31T07:24:04.260Z,265.60
2022-12-31T07:25:04.265Z,268.70
2022-12-31T07:26:04.232Z,276.70
2022-12-31T07:27:04.252Z,276.20
2022-12-31T07:28:04.220Z,277.80
2022-12-31T07:29:04.223Z,279.40
2022-12-31T07:30:04.210Z,283.40
2022-12-31T07:31:04.224Z,280.10
2022-12-31T07:32:04.178Z,284.20
2022-12-31T07:33:04.169Z,280.30
2022-12-31T07:34:04.163Z,289.90
2022-12-31T07:35:04.225Z,283.20
2022-12-31T07:36:04.135Z,281.40
2022-12-31T07:37:04.198Z,286.90
2022-12-31T07:38:04.136Z,284.20
2022-12-31T07:39:04.111Z,285.60
2022-12-31T07:40:04.138Z,287.60
2022-12-31T07:41:09.272Z,286.20
2022-12-31T07:42:04.076Z,272.80
2022-12-31T07:43:04.063Z,280.50
2022-12-31T07:44:04.067Z,283.40
2022-12-31T07:45:04.074Z,281.00
2022-12-31T07:46:04.027Z,283.30
2022-12-31T07:47:04.009Z,287.30
2022-12-31T07:48:04.007Z,278.50
2022-12-31T07:49:03.996Z,277.10
2022-12-31T07:50:04.062Z,272.60
2022-12-31T07:51:03.974Z,277.40
2022-12-31T07:52:03.977Z,289.30
2022-12-31T07:53:03.965Z,283.60
2022-12-31T07:54:06.412Z,283.00
2022-12-31T07:55:03.964Z,280.50
2022-12-31T07:56:03.936Z,283.20
2022-12-31T07:57:03.901Z,285.20
2022-12-31T07:58:03.903Z,286.60
2022-12-31T07:59:03.890Z,275.10
2022-12-31T08:00:03.954Z,283.10
2022-12-31T08:01:03.990Z,287.80
2022-12-31T08:02:04.023Z,280.10
2022-12-31T08:03:03.860Z,288.20
2022-12-31T08:04:03.831Z,274.00
2022-12-31T08:05:03.837Z,289.60
2022-12-31T08:06:03.807Z,294.60
2022-12-31T08:07:03.803Z,284.30
2022-12-31T08:08:03.799Z,287.10
2022-12-31T08:09:03.772Z,284.40
2022-12-31T08:10:03.786Z,274.00
2022-12-31T08:11:03.755Z,282.70
2022-12-31T08:12:03.736Z,275.60
2022-12-31T08:13:03.732Z,281.10
2022-12-31T08:14:03.739Z,288.40
2022-12-31T08:15:03.743Z,288.80
2022-12-31T08:16:03.801Z,279.00
2022-12-31T08:17:03.713Z,275.60
2022-12-31T08:18:03.690Z,287.80
2022-12-31T08:19:03.666Z,284.60
2022-12-31T08:20:03.670Z,267.00
2022-12-31T08:21:03.681Z,265.70
2022-12-31T08:22:03.668Z,251.50
2022-12-31T08:23:03.631Z,223.10
2022-12-31T08:24:03.617Z,225.70
2022-12-31T08:25:03.610Z,226.20
2022-12-31T08:26:03.646Z,222.10
2022-12-31T08:27:03.587Z,198.40
2022-12-31T08:28:03.583Z,197.60
2022-12-31T08:29:03.579Z,202.00
2022-12-31T08:30:03.603Z,203.70
2022-12-31T08:31:03.571Z,187.40
2022-12-31T08:32:03.594Z,184.80
2022-12-31T08:33:03.522Z,185.00
2022-12-31T08:34:06.060Z,176.80
2022-12-31T08:35:03.489Z,187.70
2022-12-31T08:36:03.525Z,172.60
2022-12-31T08:37:03.508Z,176.30
2022-12-31T08:38:03.469Z,169.20
2022-12-31T08:39:03.452Z,175.10
2022-12-31T08:40:03.457Z,172.40
2022-12-31T08:41:03.479Z,163.00
2022-12-31T08:42:03.434Z,158.00
2022-12-31T08:43:03.443Z,168.70
2022-12-31T08:44:03.406Z,159.20
2022-12-31T08:45:03.396Z,160.60
2022-12-31T08:46:03.414Z,154.60
2022-12-31T08:47:03.369Z,155.50
2022-12-31T08:48:03.379Z,150.40
2022-12-31T08:49:03.401Z,154.90
2022-12-31T08:50:03.387Z,152.20
2022-12-31T08:51:03.378Z,150.20
2022-12-31T08:52:03.350Z,152.40
2022-12-31T08:53:03.307Z,147.70
2022-12-31T08:54:03.361Z,145.70
2022-12-31T08:55:03.309Z,154.60
2022-12-31T08:56:03.325Z,145.40
2022-12-31T08:57:03.275Z,138.90
2022-12-31T08:58:03.258Z,144.60
2022-12-31T08:59:03.253Z,157.10
2022-12-31T09:00:03.247Z,163.90
2022-12-31T09:01:03.412Z,163.00
2022-12-31T09:02:03.388Z,169.00
2022-12-31T09:03:03.201Z,161.00
2022-12-31T09:04:03.245Z,180.90
2022-12-31T09:05:03.208Z,161.80
2022-12-31T09:06:03.195Z,156.50
2022-12-31T09:07:03.154Z,154.10
2022-12-31T09:08:03.163Z,149.60
2022-12-31T09:09:03.163Z,152.90
2022-12-31T09:10:03.158Z,143.90
2022-12-31T09:11:03.142Z,138.70
2022-12-31T09:12:03.150Z,144.50
2022-12-31T09:13:03.113Z,145.20
2022-12-31T09:14:03.133Z,139.20
2022-12-31T09:15:03.096Z,142.80
2022-12-31T09:16:03.093Z,137.60
2022-12-31T09:17:03.073Z,126.00
2022-12-31T09:18:03.061Z,126.40
2022-12-31T09:19:03.089Z,122.80
2022-12-31T09:20:03.067Z,119.30
2022-12-31T09:21:03.044Z,119.20
2022-12-31T09:22:03.038Z,117.90
2022-12-31T09:23:03.005Z,118.90
2022-12-31T09:24:08.997Z,117.70
2022-12-31T09:25:02.981Z,116.40
2022-12-31T09:26:02.988Z,114.10
2022-12-31T09:27:02.968Z,106.30
2022-12-31T09:28:02.949Z,103.80
2022-12-31T09:29:02.934Z,109.50
2022-12-31T09:30:02.920Z,97.10
2022-12-31T09:31:02.949Z,103.70
2022-12-31T09:32:02.922Z,97.30
2022-12-31T09:33:02.916Z,95.00
2022-12-31T09:34:02.968Z,88.40
2022-12-31T09:35:02.909Z,97.50
2022-12-31T09:36:02.971Z,84.00
2022-12-31T09:37:02.845Z,82.00
2022-12-31T09:38:07.909Z,67.50
2022-12-31T09:39:02.857Z,66.00
2022-12-31T09:40:02.821Z,73.50
2022-12-31T09:41:02.821Z,63.90
2022-12-31T09:42:02.831Z,54.20
2022-12-31T09:43:02.784Z,52.70
2022-12-31T09:44:02.783Z,64.80
2022-12-31T09:45:02.788Z,47.30
2022-12-31T09:46:02.893Z,50.90
2022-12-31T09:47:02.762Z,49.40
2022-12-31T09:48:02.734Z,46.00
2022-12-31T09:49:02.832Z,44.50
2022-12-31T09:50:02.730Z,43.10
2022-12-31T09:51:02.712Z,39.80
2022-12-31T09:52:02.736Z,36.30
2022-12-31T09:53:02.671Z,37.90
2022-12-31T09:54:02.671Z,36.00
2022-12-31T09:55:02.692Z,34.20
2022-12-31T09:56:02.653Z,39.50
2022-12-31T09:57:02.669Z,38.80
2022-12-31T09:58:02.631Z,39.40
2022-12-31T09:59:02.631Z,37.90
2022-12-31T10:00:02.627Z,39.40
2022-12-31T10:01:02.698Z,43.50
2022-12-31T10:02:02.867Z,60.20
2022-12-31T10:03:02.613Z,62.20
2022-12-31T10:04:02.588Z,63.20
2022-12-31T10:05:02.588Z,66.30
2022-12-31T10:06:02.584Z,71.40
2022-12-31T10:07:02.550Z,69.90
2022-12-31T10:08:02.540Z,74.20
2022-12-31T10:09:02.539Z,76.70
2022-12-31T10:10:02.515Z,83.60
2022-12-31T10:11:02.485Z,82.50
2022-12-31T10:12:02.545Z,90.50
2022-12-31T10:13:02.466Z,90.40
2022-12-31T10:14:02.466Z,89.10
2022-12-31T10:15:02.496Z,90.00
2022-12-31T10:16:02.453Z,89.30
2022-12-31T10:17:02.499Z,88.70
2022-12-31T10:18:02.427Z,89.90
2022-12-31T10:19:02.411Z,89.90
2022-12-31T10:20:02.402Z,93.00
2022-12-31T10:21:02.421Z,88.40
2022-12-31T10:22:02.393Z,85.40
2022-12-31T10:23:02.373Z,83.10
2022-12-31T10:24:02.394Z,84.60
2022-12-31T10:25:02.339Z,83.50
2022-12-31T10:26:02.333Z,78.60
2022-12-31T10:27:02.340Z,72.40
2022-12-31T10:28:02.328Z,73.60
2022-12-31T10:29:02.328Z,66.00
2022-12-31T10:30:02.305Z,65.70
2022-12-31T10:31:02.339Z,66.70
2022-12-31T10:32:02.323Z,67.60
2022-12-31T10:33:02.272Z,70.00
2022-12-31T10:34:02.261Z,78.70
2022-12-31T10:35:02.237Z,82.50
2022-12-31T10:36:02.219Z,81.50
2022-12-31T10:37:02.207Z,90.50
2022-12-31T10:38:02.227Z,85.60
2022-12-31T10:39:05.078Z,102.70
2022-12-31T10:40:02.183Z,112.60
2022-12-31T10:41:02.155Z,115.30
2022-12-31T10:42:02.193Z,123.00
2022-12-31T10:43:02.186Z,134.00
2022-12-31T10:44:02.158Z,141.70
2022-12-31T10:45:02.121Z,140.90
2022-12-31T10:46:02.153Z,148.40
2022-12-31T10:47:02.109Z,160.90
2022-12-31T10:48:02.145Z,161.30
2022-12-31T10:49:02.093Z,171.90
2022-12-31T10:50:02.117Z,170.10
2022-12-31T10:51:02.072Z,178.90
2022-12-31T10:52:02.060Z,185.70
2022-12-31T10:53:02.054Z,188.00
2022-12-31T10:54:02.035Z,181.50
2022-12-31T10:55:02.028Z,185.70
2022-12-31T10:56:02.041Z,178.90
2022-12-31T10:57:01.992Z,173.90
2022-12-31T10:58:04.574Z,174.30
2022-12-31T10:59:01.982Z,174.00
2022-12-31T11:00:02.001Z,177.50
2022-12-31T11:01:02.179Z,180.80
2022-12-31T11:02:02.060Z,183.60
2022-12-31T11:03:02.063Z,183.20
2022-12-31T11:04:01.940Z,176.60
2022-12-31T11:05:01.929Z,174.20
2022-12-31T11:06:01.957Z,168.70
2022-12-31T11:07:01.929Z,172.00
2022-12-31T11:08:02.329Z,169.10
2022-12-31T11:09:02.737Z,165.60
2022-12-31T11:10:01.885Z,158.50
2022-12-31T11:11:01.901Z,157.60
2022-12-31T11:12:01.840Z,148.90
2022-12-31T11:13:01.851Z,148.80
2022-12-31T11:14:01.817Z,147.00
2022-12-31T11:15:01.824Z,127.10
2022-12-31T11:16:01.867Z,121.80
2022-12-31T11:17:02.237Z,121.90
2022-12-31T11:18:01.796Z,123.10
2022-12-31T11:19:01.804Z,115.70
2022-12-31T11:20:01.748Z,112.90
2022-12-31T11:21:01.749Z,117.90
2022-12-31T11:22:01.727Z,121.00
2022-12-31T11:23:01.743Z,111.20
2022-12-31T11:24:01.713Z,106.70
2022-12-31T11:25:01.717Z,100.10
2022-12-31T11:26:01.700Z,102.00
2022-12-31T11:27:01.681Z,96.70
2022-12-31T11:28:01.689Z,97.00
2022-12-31T11:29:01.664Z,93.30
2022-12-31T11:30:01.684Z,81.90
2022-12-31T11:31:01.721Z,85.30
2022-12-31T11:32:01.674Z,88.90
2022-12-31T11:33:01.646Z,81.90
2022-12-31T11:34:01.596Z,81.10
2022-12-31T11:35:01.585Z,79.50
2022-12-31T11:36:01.589Z,87.70
2022-12-31T11:37:01.568Z,91.40
2022-12-31T11:38:01.595Z,98.20
2022-12-31T11:39:01.583Z,98.10
2022-12-31T11:40:01.559Z,98.00
2022-12-31T11:41:01.529Z,96.10
2022-12-31T11:42:01.515Z,94.00
2022-12-31T11:43:01.539Z,95.40
2022-12-31T11:44:01.524Z,93.40
2022-12-31T11:45:01.487Z,92.00
2022-12-31T11:46:01.560Z,92.20
2022-12-31T11:47:01.451Z,89.00
2022-12-31T11:48:29.760Z,91.40
2022-12-31T11:49:01.445Z,86.10
2022-12-31T11:50:01.445Z,84.80
2022-12-31T11:51:01.419Z,78.70
2022-12-31T11:52:01.420Z,66.00
2022-12-31T11:53:01.439Z,66.90
2022-12-31T11:54:01.413Z,64.60
2022-12-31T11:55:01.398Z,64.40
2022-12-31T11:56:01.356Z,65.90
2022-12-31T11:57:01.358Z,61.40
2022-12-31T11:58:01.337Z,57.20
2022-12-31T11:59:04.876Z,60.60
2022-12-31T12:00:01.393Z,60.30
2022-12-31T12:01:01.355Z,57.30
2022-12-31T12:02:01.331Z,54.80
2022-12-31T12:03:01.397Z,52.40
2022-12-31T12:04:01.376Z,52.80
2022-12-31T12:05:06.515Z,50.40
2022-12-31T12:06:01.271Z,47.20
2022-12-31T12:07:01.241Z,45.40
2022-12-31T12:08:01.270Z,43.00
2022-12-31T12:09:01.247Z,42.10
2022-12-31T12:10:01.202Z,35.50
2022-12-31T12:11:01.216Z,34.90
2022-12-31T12:12:01.200Z,36.10
2022-12-31T12:13:01.197Z,39.80
2022-12-31T12:14:01.198Z,38.20
2022-12-31T12:15:01.168Z,40.10
2022-12-31T12:16:01.175Z,38.30
2022-12-31T12:17:05.135Z,37.60
2022-12-31T12:18:01.112Z,35.70
2022-12-31T12:19:01.141Z,31.90
2022-12-31T12:20:01.158Z,32.10
2022-12-31T12:21:07.578Z,29.60
2022-12-31T12:22:01.074Z,27.30
2022-12-31T12:23:01.072Z,27.60
2022-12-31T12:24:01.089Z,26.30
2022-12-31T12:25:01.056Z,26.60
2022-12-31T12:26:01.048Z,25.90
2022-12-31T12:27:01.038Z,23.40
2022-12-31T12:28:01.012Z,25.20
2022-12-31T12:29:01.036Z,28.70
2022-12-31T12:30:01.050Z,27.90
2022-12-31T12:31:01.163Z,22.90
2022-12-31T12:32:00.992Z,19.80
2022-12-31T12:33:00.978Z,19.20